createdAt,value
2023-02-18T00:00:39.540Z,11.20
2023-02-18T00:03:07.543Z,11.20
2023-02-18T00:05:37.592Z,11.20
2023-02-18T00:08:07.142Z,11.20
2023-02-18T00:10:44.913Z,11.20
2023-02-18T00:16:02.928Z,11.20
2023-02-18T00:18:32.604Z,11.20
2023-02-18T00:21:00.665Z,11.20
2023-02-18T00:23:28.664Z,11.20
2023-02-18T00:26:03.417Z,11.20
2023-02-18T00:28:32.539Z,11.30
2023-02-18T00:31:01.541Z,11.30
2023-02-18T00:33:30.000Z,11.30
2023-02-18T00:36:06.259Z,11.30
2023-02-18T00:38:34.973Z,11.40
2023-02-18T00:41:07.834Z,11.30
2023-02-18T00:43:36.027Z,11.30
2023-02-18T00:46:25.384Z,11.30
2023-02-18T00:49:13.899Z,11.30
2023-02-18T00:51:43.548Z,11.30
2023-02-18T00:54:13.059Z,11.30
2023-02-18T00:56:46.040Z,11.30
2023-02-18T00:59:15.544Z,11.30
2023-02-18T01:01:44.258Z,11.30
2023-02-18T01:04:13.036Z,11.30
2023-02-18T01:06:42.951Z,11.30
2023-02-18T01:09:12.283Z,11.30
2023-02-18T01:11:47.486Z,11.30
2023-02-18T01:14:17.433Z,11.30
2023-02-18T01:16:45.749Z,11.20
2023-02-18T01:19:14.406Z,11.20
2023-02-18T01:21:42.939Z,11.20
2023-02-18T01:24:12.885Z,11.30
2023-02-18T01:26:44.035Z,11.30
2023-02-18T01:29:15.751Z,11.30
2023-02-18T01:31:45.740Z,11.20
2023-02-18T01:34:13.780Z,11.20
2023-02-18T01:36:42.075Z,11.20
2023-02-18T01:39:11.671Z,11.20
2023-02-18T01:42:00.102Z,11.20
2023-02-18T01:44:30.091Z,11.20
2023-02-18T01:46:59.747Z,11.20
2023-02-18T01:49:55.646Z,11.20
2023-02-18T01:52:43.579Z,11.20
2023-02-18T01:55:11.603Z,11.20
2023-02-18T01:58:02.382Z,11.20
2023-02-18T02:00:33.062Z,11.20
2023-02-18T02:03:02.867Z,11.20
2023-02-18T02:05:33.436Z,11.20
2023-02-18T02:08:05.428Z,11.20
2023-02-18T02:10:45.481Z,11.20
2023-02-18T02:13:24.624Z,11.30
2023-02-18T02:15:59.772Z,11.30
2023-02-18T02:18:52.675Z,11.30
2023-02-18T02:22:08.385Z,11.30
2023-02-18T02:25:00.759Z,11.40
2023-02-18T02:27:51.489Z,11.30
2023-02-18T02:30:45.750Z,11.30
2023-02-18T02:33:45.741Z,11.30
2023-02-18T02:36:22.103Z,11.30
2023-02-18T02:38:58.787Z,11.20
2023-02-18T02:41:41.023Z,11.20
2023-02-18T02:44:20.863Z,11.20
2023-02-18T02:46:54.409Z,11.20
2023-02-18T02:49:37.652Z,11.20
2023-02-18T02:52:15.505Z,11.20
2023-02-18T02:54:47.757Z,11.20
2023-02-18T02:57:44.094Z,11.20
2023-02-18T03:00:15.293Z,11.20
2023-02-18T03:02:59.139Z,11.20
2023-02-18T03:05:36.879Z,11.20
2023-02-18T03:08:20.819Z,11.10
2023-02-18T03:10:57.295Z,11.10
2023-02-18T03:13:36.645Z,11.10
2023-02-18T03:16:16.807Z,11.00
2023-02-18T03:18:51.992Z,11.00
2023-02-18T03:21:24.930Z,11.00
2023-02-18T03:23:57.705Z,11.00
2023-02-18T03:26:30.067Z,11.00
2023-02-18T03:29:01.445Z,11.00
2023-02-18T03:31:31.485Z,11.00
2023-02-18T03:34:07.881Z,11.00
2023-02-18T03:36:36.596Z,10.90
2023-02-18T03:39:27.315Z,10.90
2023-02-18T03:41:55.353Z,10.90
2023-02-18T03:44:25.956Z,10.90
2023-02-18T03:46:55.241Z,10.90
2023-02-18T03:49:43.267Z,10.80
2023-02-18T03:52:31.366Z,10.90
2023-02-18T03:55:00.915Z,10.90
2023-02-18T03:57:29.170Z,10.80
2023-02-18T03:59:57.422Z,10.80
2023-02-18T04:02:25.599Z,10.90
2023-02-18T04:04:53.760Z,10.90
2023-02-18T04:07:21.718Z,10.80
2023-02-18T04:09:50.109Z,10.90
2023-02-18T04:12:20.030Z,10.90
2023-02-18T04:14:48.014Z,10.90
2023-02-18T04:17:16.465Z,10.90
2023-02-18T04:20:06.679Z,10.90
2023-02-18T04:22:35.027Z,10.90
2023-02-18T04:25:23.551Z,10.80
2023-02-18T04:27:53.653Z,10.80
2023-02-18T04:30:22.284Z,10.80
2023-02-18T04:32:50.721Z,10.80
2023-02-18T04:35:19.254Z,10.80
2023-02-18T04:37:48.520Z,10.90
2023-02-18T04:40:20.285Z,10.90
2023-02-18T04:43:08.783Z,10.90
2023-02-18T04:45:38.251Z,10.90
2023-02-18T04:48:07.182Z,10.90
2023-02-18T04:50:35.907Z,10.90
2023-02-18T04:53:07.159Z,10.90
2023-02-18T04:55:35.701Z,10.90
2023-02-18T04:58:04.433Z,10.90
2023-02-18T05:00:32.414Z,10.90
2023-02-18T05:03:02.004Z,10.90
2023-02-18T05:05:32.643Z,10.90
2023-02-18T05:08:02.261Z,10.90
2023-02-18T05:10:30.593Z,10.90
2023-02-18T05:12:58.830Z,10.90
2023-02-18T05:15:28.827Z,10.90
2023-02-18T05:17:56.929Z,10.90
2023-02-18T05:20:32.654Z,10.90
2023-02-18T05:23:01.006Z,11.00
2023-02-18T05:25:49.062Z,10.90
2023-02-18T05:28:17.746Z,11.00
2023-02-18T05:30:45.987Z,11.00
2023-02-18T05:33:14.250Z,11.00
2023-02-18T05:35:48.571Z,11.00
2023-02-18T05:38:16.572Z,11.00
2023-02-18T05:40:44.698Z,11.10
2023-02-18T05:43:12.911Z,11.10
2023-02-18T05:45:43.407Z,11.00
2023-02-18T05:48:11.627Z,11.00
2023-02-18T05:50:40.596Z,11.00
2023-02-18T05:53:12.240Z,11.00
2023-02-18T05:55:40.222Z,11.00
2023-02-18T05:58:08.307Z,11.00
2023-02-18T06:00:36.326Z,10.90
2023-02-18T06:03:04.576Z,10.90
2023-02-18T06:05:32.525Z,10.80
2023-02-18T06:08:00.675Z,10.90
2023-02-18T06:10:30.052Z,10.90
2023-02-18T06:12:58.068Z,10.80
2023-02-18T06:15:26.321Z,10.80
2023-02-18T06:17:54.291Z,10.70
2023-02-18T06:20:22.331Z,10.80
2023-02-18T06:22:50.421Z,10.80
2023-02-18T06:25:18.546Z,10.80
2023-02-18T06:27:47.893Z,10.80
2023-02-18T06:30:16.301Z,10.80
2023-02-18T06:32:44.281Z,10.80
2023-02-18T06:35:12.257Z,10.80
2023-02-18T06:37:40.174Z,10.70
2023-02-18T06:40:09.342Z,10.70
2023-02-18T06:42:37.282Z,10.70
2023-02-18T06:45:07.869Z,10.70
2023-02-18T06:47:36.306Z,10.70
2023-02-18T06:50:05.260Z,10.70
2023-02-18T06:52:34.699Z,10.60
2023-02-18T06:55:03.123Z,10.60
2023-02-18T06:57:31.168Z,10.60
2023-02-18T06:59:59.354Z,10.60
2023-02-18T07:02:28.765Z,10.50
2023-02-18T07:04:56.712Z,10.50
2023-02-18T07:07:25.033Z,10.50
2023-02-18T07:09:53.010Z,10.50
2023-02-18T07:12:21.066Z,10.50
2023-02-18T07:14:49.360Z,10.50
2023-02-18T07:17:17.475Z,10.40
2023-02-18T07:19:46.788Z,10.50
2023-02-18T07:22:14.991Z,10.50
2023-02-18T07:24:43.201Z,10.40
2023-02-18T07:27:11.454Z,10.40
2023-02-18T07:29:39.445Z,10.40
2023-02-18T07:32:07.470Z,10.40
2023-02-18T07:34:35.418Z,10.40
2023-02-18T07:37:09.133Z,10.40
2023-02-18T07:39:37.378Z,10.40
2023-02-18T07:42:05.526Z,10.40
2023-02-18T07:44:33.567Z,10.40
2023-02-18T07:47:01.929Z,10.40
2023-02-18T07:49:30.199Z,10.40
2023-02-18T07:51:58.332Z,10.40
2023-02-18T07:54:27.995Z,10.50
2023-02-18T07:56:56.358Z,10.40
2023-02-18T07:59:24.314Z,10.50
2023-02-18T08:01:52.450Z,10.50
2023-02-18T08:04:20.507Z,10.50
2023-02-18T08:06:50.694Z,10.50
2023-02-18T08:09:19.066Z,10.50
2023-02-18T08:11:48.526Z,10.50
2023-02-18T08:14:16.558Z,10.50
2023-02-18T08:16:44.788Z,10.50
2023-02-18T08:19:12.821Z,10.50
2023-02-18T08:21:40.973Z,10.50
2023-02-18T08:24:09.127Z,10.40
2023-02-18T08:26:37.494Z,10.40
2023-02-18T08:29:07.271Z,10.50
2023-02-18T08:31:35.422Z,10.40
2023-02-18T08:34:04.785Z,10.50
2023-02-18T08:36:33.365Z,10.50
2023-02-18T08:39:04.252Z,10.40
2023-02-18T08:41:32.245Z,10.40
2023-02-18T08:44:00.251Z,10.40
2023-02-18T08:46:35.190Z,10.40
2023-02-18T08:49:05.044Z,10.50
2023-02-18T08:51:33.581Z,10.50
2023-02-18T08:54:01.858Z,10.50
2023-02-18T08:56:30.105Z,10.50
2023-02-18T08:58:58.056Z,10.50
2023-02-18T09:01:26.290Z,10.50
2023-02-18T09:03:55.994Z,10.50
2023-02-18T09:06:24.029Z,10.50
2023-02-18T09:08:52.133Z,10.50
2023-02-18T09:11:21.565Z,10.50
2023-02-18T09:13:49.551Z,10.50
2023-02-18T09:16:19.040Z,10.50
2023-02-18T09:18:47.846Z,10.60
2023-02-18T09:21:20.693Z,10.60
2023-02-18T09:23:48.971Z,10.60
2023-02-18T09:26:21.436Z,10.60
2023-02-18T09:28:50.343Z,10.60
2023-02-18T09:31:20.632Z,10.60
2023-02-18T09:33:51.663Z,10.70
2023-02-18T09:36:21.478Z,10.60
2023-02-18T09:38:49.988Z,10.60
2023-02-18T09:41:27.775Z,10.70
2023-02-18T09:44:00.543Z,10.70
2023-02-18T09:46:32.307Z,10.80
2023-02-18T09:49:03.955Z,10.80
2023-02-18T09:51:34.010Z,10.80
2023-02-18T09:54:02.111Z,10.90
2023-02-18T09:56:34.932Z,10.90
2023-02-18T09:59:08.215Z,10.90
2023-02-18T10:01:38.344Z,11.00
2023-02-18T10:04:13.468Z,11.00
2023-02-18T10:06:46.316Z,11.00
2023-02-18T10:09:21.564Z,11.00
2023-02-18T10:11:52.539Z,11.10
2023-02-18T10:14:20.923Z,11.10
2023-02-18T10:16:51.897Z,11.20
2023-02-18T10:19:26.972Z,11.20
2023-02-18T10:21:57.584Z,11.20
2023-02-18T10:24:30.611Z,11.30
2023-02-18T10:26:59.276Z,11.30
2023-02-18T10:29:29.265Z,11.30
2023-02-18T10:32:00.719Z,11.30
2023-02-18T10:34:41.249Z,11.40
2023-02-18T10:37:29.056Z,11.30
2023-02-18T10:40:07.637Z,11.30
2023-02-18T10:42:46.414Z,11.30
2023-02-18T10:45:25.732Z,11.40
2023-02-18T10:48:06.838Z,11.40
2023-02-18T10:50:38.824Z,11.40
2023-02-18T10:53:15.200Z,11.40
2023-02-18T10:55:45.488Z,11.50
2023-02-18T10:58:28.498Z,11.50
2023-02-18T11:00:56.850Z,11.50
2023-02-18T11:03:27.698Z,11.60
2023-02-18T11:05:57.741Z,11.50
2023-02-18T11:08:29.467Z,11.60
2023-02-18T11:10:58.264Z,11.60
2023-02-18T11:13:28.407Z,11.60
2023-02-18T11:15:59.932Z,11.60
2023-02-18T11:18:39.194Z,11.70
2023-02-18T11:21:22.020Z,11.70
2023-02-18T11:23:53.888Z,11.70
2023-02-18T11:26:28.954Z,11.70
2023-02-18T11:29:03.940Z,11.80
2023-02-18T11:31:43.579Z,11.80
2023-02-18T11:34:17.904Z,11.80
2023-02-18T11:36:47.204Z,11.90
2023-02-18T11:39:22.688Z,11.90
2023-02-18T11:41:57.011Z,11.90
2023-02-18T11:44:30.530Z,11.90
2023-02-18T11:47:01.056Z,11.90
2023-02-18T11:49:30.497Z,11.90
2023-02-18T11:52:06.881Z,11.80
2023-02-18T11:54:36.583Z,11.80
2023-02-18T11:57:06.888Z,11.80
2023-02-18T11:59:37.508Z,11.80
2023-02-18T12:02:27.181Z,11.90
2023-02-18T12:05:02.945Z,11.90
2023-02-18T12:07:40.869Z,11.90
2023-02-18T12:10:16.599Z,12.00
2023-02-18T12:12:49.521Z,12.10
2023-02-18T12:15:23.319Z,12.10
2023-02-18T12:18:04.560Z,12.20
2023-02-18T12:20:50.782Z,12.20
2023-02-18T12:23:26.131Z,12.30
2023-02-18T12:26:03.731Z,12.40
2023-02-18T12:28:46.392Z,12.40
2023-02-18T12:31:40.898Z,12.50
2023-02-18T12:34:23.225Z,12.50
2023-02-18T12:37:03.882Z,12.60
2023-02-18T12:39:46.399Z,12.60
2023-02-18T12:42:26.596Z,12.60
2023-02-18T12:45:05.988Z,12.50
2023-02-18T12:47:48.965Z,12.50
2023-02-18T12:50:43.968Z,12.50
2023-02-18T12:53:40.752Z,12.50
2023-02-18T12:56:41.381Z,12.50
2023-02-18T12:59:21.216Z,12.60
2023-02-18T13:01:55.461Z,12.60
2023-02-18T13:04:38.612Z,12.70
2023-02-18T13:07:48.749Z,12.70
2023-02-18T13:10:53.726Z,12.70
2023-02-18T13:13:23.575Z,12.70
2023-02-18T13:15:58.090Z,12.70
2023-02-18T13:18:31.505Z,12.70
2023-02-18T13:21:05.390Z,12.80
2023-02-18T13:23:37.289Z,12.80
2023-02-18T13:26:10.827Z,12.80
2023-02-18T13:28:45.918Z,12.80
2023-02-18T13:31:29.007Z,12.80
2023-02-18T13:34:05.241Z,12.80
2023-02-18T13:36:48.672Z,12.80
2023-02-18T13:39:20.496Z,12.80
2023-02-18T13:41:50.466Z,12.80
2023-02-18T13:45:06.800Z,12.80
2023-02-18T13:47:40.926Z,12.90
2023-02-18T13:50:49.798Z,12.90
2023-02-18T13:53:24.846Z,12.90
2023-02-18T13:56:09.881Z,13.00
2023-02-18T13:58:42.295Z,13.00
2023-02-18T14:01:21.024Z,13.10
2023-02-18T14:03:57.223Z,13.10
2023-02-18T14:06:27.954Z,13.10
2023-02-18T14:09:28.038Z,13.10
2023-02-18T14:11:57.822Z,13.10
2023-02-18T14:14:39.622Z,13.20
2023-02-18T14:17:36.219Z,13.20
2023-02-18T14:20:48.023Z,13.10
2023-02-18T14:24:00.353Z,12.90
2023-02-18T14:26:33.153Z,13.00
2023-02-18T14:29:19.072Z,12.90
2023-02-18T14:32:01.369Z,12.90
2023-02-18T14:35:08.513Z,13.00
2023-02-18T14:38:10.106Z,13.00
2023-02-18T14:41:04.998Z,13.00
2023-02-18T14:43:54.390Z,12.90
2023-02-18T14:46:33.257Z,12.80
2023-02-18T14:49:37.450Z,12.80
2023-02-18T14:52:07.932Z,12.70
2023-02-18T14:54:38.144Z,12.80
2023-02-18T14:57:10.487Z,12.80
2023-02-18T14:59:42.459Z,12.80
2023-02-18T15:02:20.409Z,12.70
2023-02-18T15:04:48.539Z,12.70
2023-02-18T15:07:20.738Z,12.70
2023-02-18T15:09:53.475Z,12.60
2023-02-18T15:12:25.534Z,12.60
2023-02-18T15:14:55.680Z,12.60
2023-02-18T15:17:27.787Z,12.50
2023-02-18T15:19:58.406Z,12.40
2023-02-18T15:22:28.242Z,12.40
2023-02-18T15:24:58.061Z,12.40
2023-02-18T15:27:29.310Z,12.30
2023-02-18T15:29:59.808Z,12.30
2023-02-18T15:32:29.554Z,12.30
2023-02-18T15:35:01.682Z,12.30
2023-02-18T15:37:30.853Z,12.30
2023-02-18T15:40:04.835Z,12.20
2023-02-18T15:42:40.067Z,12.10
2023-02-18T15:45:19.612Z,12.20
2023-02-18T15:47:49.816Z,12.00
2023-02-18T15:50:21.088Z,12.00
2023-02-18T15:52:50.451Z,12.00
2023-02-18T15:55:26.936Z,12.00
2023-02-18T15:57:55.502Z,12.00
2023-02-18T16:00:29.569Z,12.00
2023-02-18T16:03:03.493Z,11.90
2023-02-18T16:05:32.102Z,11.90
2023-02-18T16:08:02.532Z,11.90
2023-02-18T16:10:48.465Z,11.90
2023-02-18T16:13:18.595Z,11.80
2023-02-18T16:15:49.309Z,11.80
2023-02-18T16:18:38.342Z,11.80
2023-02-18T16:21:09.770Z,11.80
2023-02-18T16:23:43.597Z,11.80
2023-02-18T16:26:24.589Z,11.80
2023-02-18T16:28:54.569Z,11.80
2023-02-18T16:31:23.321Z,11.80
2023-02-18T16:33:51.517Z,11.80
2023-02-18T16:36:20.443Z,11.70
2023-02-18T16:38:50.152Z,11.70
2023-02-18T16:41:18.723Z,11.60
2023-02-18T16:43:48.150Z,11.60
2023-02-18T16:46:19.026Z,11.60
2023-02-18T16:48:50.158Z,11.50
2023-02-18T16:51:21.995Z,11.60
2023-02-18T16:53:50.064Z,11.50
2023-02-18T16:56:20.490Z,11.60
2023-02-18T16:58:50.722Z,11.60
2023-02-18T17:01:27.425Z,11.60
2023-02-18T17:03:56.025Z,11.60
2023-02-18T17:06:24.268Z,11.60
2023-02-18T17:08:52.861Z,11.50
2023-02-18T17:11:23.764Z,11.50
2023-02-18T17:13:54.928Z,11.50
2023-02-18T17:16:23.831Z,11.50
2023-02-18T17:18:51.981Z,11.50
2023-02-18T17:21:21.720Z,11.50
2023-02-18T17:23:50.980Z,11.50
2023-02-18T17:26:21.444Z,11.50
2023-02-18T17:28:49.488Z,11.50
2023-02-18T17:31:23.277Z,11.50
2023-02-18T17:33:51.720Z,11.50
2023-02-18T17:36:20.153Z,11.50
2023-02-18T17:38:49.308Z,11.50
2023-02-18T17:41:17.880Z,11.50
2023-02-18T17:43:46.160Z,11.50
2023-02-18T17:46:16.548Z,11.50
2023-02-18T17:48:47.430Z,11.50
2023-02-18T17:51:24.418Z,11.50
2023-02-18T17:53:52.468Z,11.50
2023-02-18T17:56:20.755Z,11.50
2023-02-18T17:58:49.073Z,11.50
2023-02-18T18:01:18.592Z,11.50
2023-02-18T18:03:48.128Z,11.50
2023-02-18T18:06:18.290Z,11.50
2023-02-18T18:08:46.283Z,11.40
2023-02-18T18:11:17.826Z,11.50
2023-02-18T18:13:47.892Z,11.50
2023-02-18T18:16:18.268Z,11.50
2023-02-18T18:18:47.687Z,11.50
2023-02-18T18:21:20.751Z,11.50
2023-02-18T18:23:48.893Z,11.50
2023-02-18T18:26:17.041Z,11.60
2023-02-18T18:28:45.301Z,11.50
2023-02-18T18:31:16.538Z,11.50
2023-02-18T18:33:48.745Z,11.50
2023-02-18T18:36:19.703Z,11.50
2023-02-18T18:38:48.161Z,11.50
2023-02-18T18:41:18.935Z,11.50
2023-02-18T18:43:47.290Z,11.40
2023-02-18T18:46:15.438Z,11.50
2023-02-18T18:48:43.489Z,11.50
2023-02-18T18:51:16.213Z,11.50
2023-02-18T18:53:45.946Z,11.50
2023-02-18T18:56:14.964Z,11.50
2023-02-18T18:58:43.073Z,11.50
2023-02-18T19:01:17.395Z,11.40
2023-02-18T19:03:46.092Z,11.40
2023-02-18T19:06:20.333Z,11.40
2023-02-18T19:08:50.260Z,11.40
2023-02-18T19:11:22.416Z,11.40
2023-02-18T19:13:50.988Z,11.40
2023-02-18T19:16:20.931Z,11.40
2023-02-18T19:18:49.620Z,11.40
2023-02-18T19:21:21.533Z,11.40
2023-02-18T19:23:53.106Z,11.40
2023-02-18T19:26:41.365Z,11.30
2023-02-18T19:29:13.012Z,11.40
2023-02-18T19:31:45.313Z,11.30
2023-02-18T19:34:15.444Z,11.30
2023-02-18T19:36:50.723Z,11.30
2023-02-18T19:39:21.730Z,11.30
2023-02-18T19:41:51.306Z,11.30
2023-02-18T19:44:20.730Z,11.30
2023-02-18T19:46:50.877Z,11.20
2023-02-18T19:49:20.353Z,11.20
2023-02-18T19:51:52.314Z,11.20
2023-02-18T19:54:23.069Z,11.20
2023-02-18T19:57:18.190Z,11.20
2023-02-18T20:00:12.846Z,11.20
2023-02-18T20:02:41.895Z,11.20
2023-02-18T20:05:34.334Z,11.10
2023-02-18T20:08:02.793Z,11.10
2023-02-18T20:10:35.793Z,11.20
2023-02-18T20:13:13.324Z,11.20
2023-02-18T20:15:43.193Z,11.20
2023-02-18T20:18:16.714Z,11.20
2023-02-18T20:20:50.366Z,11.20
2023-02-18T20:23:19.913Z,11.20
2023-02-18T20:25:53.233Z,11.20
2023-02-18T20:28:24.892Z,11.20
2023-02-18T20:31:06.673Z,11.10
2023-02-18T20:33:36.181Z,11.10
2023-02-18T20:36:26.992Z,11.10
2023-02-18T20:39:07.633Z,11.20
2023-02-18T20:41:44.790Z,11.10
2023-02-18T20:44:13.786Z,11.10
2023-02-18T20:46:47.978Z,11.10
2023-02-18T20:49:20.569Z,11.10
2023-02-18T20:51:48.915Z,11.10
2023-02-18T20:54:29.593Z,11.00
2023-02-18T20:57:02.755Z,11.00
2023-02-18T20:59:33.588Z,11.00
2023-02-18T21:02:03.194Z,11.00
2023-02-18T21:04:52.187Z,11.00
2023-02-18T21:07:22.418Z,11.00
2023-02-18T21:09:50.818Z,11.00
2023-02-18T21:12:20.618Z,10.90
2023-02-18T21:14:48.931Z,11.00
2023-02-18T21:17:22.074Z,11.00
2023-02-18T21:19:50.198Z,11.00
2023-02-18T21:22:19.296Z,11.00
2023-02-18T21:24:50.013Z,10.90
2023-02-18T21:27:21.571Z,10.90
2023-02-18T21:29:49.876Z,11.00
2023-02-18T21:32:18.202Z,11.00
2023-02-18T21:34:51.636Z,11.00
2023-02-18T21:37:22.127Z,11.00
2023-02-18T21:39:51.705Z,11.00
2023-02-18T21:42:21.335Z,10.90
2023-02-18T21:44:59.972Z,10.90
2023-02-18T21:47:28.621Z,10.90
2023-02-18T21:49:58.508Z,10.90
2023-02-18T21:52:29.085Z,10.90
2023-02-18T21:55:17.523Z,11.00
2023-02-18T21:57:51.622Z,10.90
2023-02-18T22:00:21.135Z,11.00
2023-02-18T22:02:51.167Z,10.90
2023-02-18T22:05:19.247Z,11.00
2023-02-18T22:08:28.123Z,11.00
2023-02-18T22:10:56.532Z,11.00
2023-02-18T22:13:25.906Z,11.00
2023-02-18T22:15:57.523Z,11.00
2023-02-18T22:18:25.895Z,11.00
2023-02-18T22:20:59.833Z,11.00
2023-02-18T22:23:28.234Z,11.00
2023-02-18T22:25:57.033Z,11.00
2023-02-18T22:28:32.946Z,11.10
2023-02-18T22:31:33.374Z,11.10
2023-02-18T22:34:01.887Z,11.10
2023-02-18T22:36:40.646Z,11.10
2023-02-18T22:39:12.381Z,11.10
2023-02-18T22:41:44.921Z,11.10
2023-02-18T22:44:16.338Z,11.10
2023-02-18T22:46:47.569Z,11.10
2023-02-18T22:49:16.056Z,11.10
2023-02-18T22:51:45.818Z,11.10
2023-02-18T22:54:16.031Z,11.10
2023-02-18T22:57:06.936Z,11.10
2023-02-18T22:59:39.007Z,11.00
2023-02-18T23:02:08.465Z,11.00
2023-02-18T23:04:42.354Z,11.10
2023-02-18T23:07:31.164Z,11.00
2023-02-18T23:10:21.106Z,11.00
2023-02-18T23:12:52.980Z,11.00
2023-02-18T23:15:28.406Z,11.10
2023-02-18T23:17:59.835Z,11.10
2023-02-18T23:21:06.892Z,11.10
2023-02-18T23:23:38.147Z,11.10
2023-02-18T23:26:26.771Z,11.00
2023-02-18T23:28:57.540Z,11.10
2023-02-18T23:31:47.828Z,11.10
2023-02-18T23:34:18.170Z,11.10
2023-02-18T23:36:47.709Z,11.10
2023-02-18T23:39:26.006Z,11.10
2023-02-18T23:41:56.202Z,11.10
2023-02-18T23:44:49.055Z,11.10
2023-02-18T23:47:27.604Z,11.10
2023-02-18T23:50:18.658Z,11.10
2023-02-18T23:52:50.426Z,11.00
2023-02-18T23:55:19.301Z,11.00
2023-02-18T23:57:48.099Z,11.00
